Terminal Aerodrome Forecast
Issued by NWS

Home | Current Version | Previous Version | Text Only | Print | Product List | Glossary On
Versions: 1 2 3 4 5 6 7 8 9 10 11 12 13
000
FTUS42 TJSJ 290500 RRA
TAFJSJ
TAF
TJSJ 290541Z 2906/3006 10005KT P6SM VCSH FEW025 SCT040
     FM291330 07012G18KT P6SM SCT025 SCT050
     FM292330 10005KT P6SM FEW025=

USA.gov is the U.S. government's official web portal to all federal, state and local government web resources and services.